Time;durP1;ratioP1;P1;durP2;ratioP2;P2;SDS_P1;SDS_P2;PMS_P1;PMS_P2;Temp;Humidity;BMP_temperature;BMP_pressure;BME280_temperature;BME280_humidity;BME280_pressure;Samples;Min_cycle;Max_cycle;Signal;HPM_P1;HPM_P2
2023/04/25 00:01:40;;;;;;;3.73;2.90;;;14.00;72.00;;;;;;5031903;28;20449;-65
2023/04/25 00:04:08;;;;;;;3.27;2.97;;;14.00;72.00;;;;;;5032383;28;20457;-65
2023/04/25 00:06:36;;;;;;;3.90;3.60;;;14.00;72.00;;;;;;5037028;28;20472;-65
2023/04/25 00:09:03;;;;;;;3.57;3.23;;;14.00;71.80;;;;;;5052009;28;20449;-65
2023/04/25 00:11:30;;;;;;;4.83;3.23;;;14.00;72.00;;;;;;5035180;28;20457;-65
2023/04/25 00:13:59;;;;;;;3.30;3.00;;;14.00;71.90;;;;;;5048749;28;21007;-64
2023/04/25 00:16:28;;;;;;;3.50;3.20;;;13.90;71.90;;;;;;5033427;28;20449;-65
2023/04/25 00:18:56;;;;;;;4.27;3.87;;;14.00;71.60;;;;;;5038147;28;20565;-65
2023/04/25 00:21:25;;;;;;;4.40;3.57;;;13.90;71.50;;;;;;5035345;28;20527;-65
2023/04/25 00:23:53;;;;;;;4.17;3.47;;;13.90;71.80;;;;;;5045696;28;20546;-65
2023/04/25 00:26:20;;;;;;;3.73;3.43;;;14.00;72.00;;;;;;5042663;28;20456;-65
2023/04/25 00:28:47;;;;;;;3.70;3.40;;;14.00;72.10;;;;;;5046572;28;20484;-64
2023/04/25 00:31:14;;;;;;;3.83;3.17;;;14.00;72.00;;;;;;5052291;28;20809;-65
2023/04/25 00:33:42;;;;;;;3.40;3.10;;;14.00;71.50;;;;;;5047035;28;20479;-65
2023/04/25 00:36:10;;;;;;;4.30;3.90;;;14.00;71.50;;;;;;5046212;28;20449;-65
2023/04/25 00:38:38;;;;;;;3.80;3.50;;;14.00;71.20;;;;;;5040927;28;20444;-65
2023/04/25 00:41:06;;;;;;;4.30;3.90;;;14.00;71.50;;;;;;5046701;28;20512;-66
2023/04/25 00:43:34;;;;;;;4.60;3.73;;;14.00;71.00;;;;;;5034379;28;20834;-65
2023/04/25 00:46:01;;;;;;;4.23;3.83;;;14.00;71.50;;;;;;5050780;28;20464;-65
2023/04/25 00:48:28;;;;;;;4.00;3.60;;;14.00;71.60;;;;;;5047668;28;20960;-65
2023/04/25 00:51:00;;;;;;;4.67;3.67;;;14.00;71.40;;;;;;5034409;28;20836;-65
2023/04/25 00:53:29;;;;;;;3.83;3.53;;;14.00;71.30;;;;;;5045075;28;20476;-64
2023/04/25 00:55:56;;;;;;;3.93;3.53;;;13.90;70.90;;;;;;5046493;28;20506;-65
2023/04/25 00:58:23;;;;;;;3.57;3.17;;;13.90;71.20;;;;;;5046096;28;20471;-65
2023/04/25 01:00:52;;;;;;;4.07;3.67;;;13.90;71.40;;;;;;5032068;28;20457;-65
2023/04/25 01:03:20;;;;;;;3.60;3.27;;;13.90;70.90;;;;;;5044322;28;20479;-65
2023/04/25 01:05:48;;;;;;;4.50;4.10;;;13.90;71.10;;;;;;5049061;28;20483;-65
2023/04/25 01:08:16;;;;;;;4.03;3.63;;;13.90;70.70;;;;;;5050007;28;20459;-65
2023/04/25 01:10:43;;;;;;;4.57;3.27;;;13.90;70.60;;;;;;5031821;28;20983;-64
2023/04/25 01:13:10;;;;;;;4.27;3.60;;;13.90;70.60;;;;;;5032427;28;20473;-65
2023/04/25 01:15:36;;;;;;;3.37;3.07;;;13.80;70.70;;;;;;5036339;28;20450;-65
2023/04/25 01:18:04;;;;;;;3.90;3.60;;;13.80;70.50;;;;;;5032745;28;20510;-65
2023/04/25 01:20:33;;;;;;;3.63;3.33;;;13.80;70.40;;;;;;5031426;28;21046;-65
2023/04/25 01:23:02;;;;;;;3.50;3.20;;;13.80;70.50;;;;;;5030882;28;21012;-64
2023/04/25 01:25:30;;;;;;;3.70;3.30;;;13.80;70.40;;;;;;5031686;28;21025;-64
2023/04/25 01:27:57;;;;;;;4.90;3.27;;;13.80;70.30;;;;;;5031380;28;20452;-64
2023/04/25 01:30:24;;;;;;;3.33;3.03;;;13.80;70.60;;;;;;5030967;28;20450;-64
2023/04/25 01:32:52;;;;;;;3.43;3.13;;;13.70;70.30;;;;;;5031107;28;20474;-64
2023/04/25 01:35:19;;;;;;;3.70;3.40;;;13.70;70.30;;;;;;5031507;28;20449;-64
2023/04/25 01:37:46;;;;;;;4.77;3.50;;;13.60;70.50;;;;;;5033721;28;20453;-64
2023/04/25 01:40:14;;;;;;;3.90;3.50;;;13.50;70.80;;;;;;5035245;28;20564;-64
2023/04/25 01:42:43;;;;;;;3.87;3.50;;;13.40;70.90;;;;;;5035366;28;20498;-64
2023/04/25 01:45:11;;;;;;;4.17;3.50;;;13.30;71.00;;;;;;5035503;28;20449;-64
2023/04/25 01:47:41;;;;;;;3.37;3.03;;;13.30;71.40;;;;;;5035748;28;20445;-64
2023/04/25 01:50:09;;;;;;;4.37;3.80;;;13.30;71.50;;;;;;5035558;28;20455;-64
2023/04/25 01:52:36;;;;;;;3.83;3.40;;;13.30;71.50;;;;;;5035062;28;20469;-64
2023/04/25 01:55:03;;;;;;;3.63;3.27;;;13.20;71.70;;;;;;5035247;28;20825;-64
2023/04/25 01:57:31;;;;;;;4.07;3.57;;;13.30;72.00;;;;;;5037345;28;20456;-64
2023/04/25 02:00:00;;;;;;;4.13;3.50;;;13.40;72.10;;;;;;5043275;28;20449;-64
2023/04/25 02:02:27;;;;;;;3.90;3.50;;;13.40;71.70;;;;;;5042669;28;20475;-64
2023/04/25 02:04:55;;;;;;;3.77;3.30;;;13.50;71.60;;;;;;5054766;28;20479;-64
2023/04/25 02:07:23;;;;;;;4.37;3.60;;;13.50;71.70;;;;;;5046653;28;20816;-64
2023/04/25 02:09:49;;;;;;;3.90;3.50;;;13.50;71.00;;;;;;5054177;28;20874;-64
2023/04/25 02:12:16;;;;;;;4.00;3.37;;;13.40;72.10;;;;;;5054001;28;20940;-64
2023/04/25 02:14:45;;;;;;;4.40;4.00;;;13.30;71.30;;;;;;5052563;28;20467;-64
2023/04/25 02:17:12;;;;;;;4.00;3.60;;;13.20;71.70;;;;;;5054678;28;20480;-64
2023/04/25 02:19:39;;;;;;;4.10;3.70;;;13.20;71.70;;;;;;5051927;28;20835;-64
2023/04/25 02:22:06;;;;;;;4.23;3.50;;;13.10;72.00;;;;;;5034502;28;20786;-64
2023/04/25 02:24:33;;;;;;;4.00;3.60;;;13.10;73.00;;;;;;5038873;28;21005;-64
2023/04/25 02:27:00;;;;;;;4.20;3.80;;;13.00;72.60;;;;;;5052749;28;20452;-64
2023/04/25 02:29:27;;;;;;;4.00;3.70;;;13.00;74.00;;;;;;5048503;28;20446;-64
2023/04/25 02:31:56;;;;;;;4.87;3.97;;;12.90;73.40;;;;;;5038477;28;20440;-64
2023/04/25 02:34:23;;;;;;;4.63;3.70;;;12.90;74.00;;;;;;5048438;28;21087;-64
2023/04/25 02:36:50;;;;;;;4.77;4.03;;;12.90;74.00;;;;;;5038876;28;20478;-64
2023/04/25 02:39:17;;;;;;;3.77;3.47;;;13.00;73.90;;;;;;5034277;28;20483;-64
2023/04/25 02:41:44;;;;;;;4.60;3.80;;;13.20;74.50;;;;;;5047876;28;20448;-64
2023/04/25 02:44:11;;;;;;;5.47;4.17;;;13.20;73.90;;;;;;5046626;28;20519;-64
2023/04/25 02:46:38;;;;;;;4.10;3.70;;;13.20;74.10;;;;;;5046313;28;20954;-64
2023/04/25 02:49:06;;;;;;;5.07;4.10;;;13.20;73.40;;;;;;5051744;28;20538;-64
2023/04/25 02:51:33;;;;;;;4.30;3.93;;;13.30;73.90;;;;;;5039065;28;20841;-64
2023/04/25 02:54:00;;;;;;;4.23;3.83;;;13.30;73.60;;;;;;5039970;28;20456;-64
2023/04/25 02:56:27;;;;;;;4.43;4.00;;;13.30;73.40;;;;;;5034464;28;20536;-64
2023/04/25 02:58:54;;;;;;;5.63;4.43;;;13.30;73.50;;;;;;5033397;28;20469;-64
2023/04/25 03:01:21;;;;;;;4.57;4.10;;;13.30;73.60;;;;;;5050650;28;20456;-64
2023/04/25 03:03:47;;;;;;;4.70;4.20;;;13.40;73.80;;;;;;5045631;28;20476;-64
2023/04/25 03:06:16;;;;;;;6.30;4.43;;;13.40;73.80;;;;;;5051774;28;20478;-64
2023/04/25 03:08:43;;;;;;;5.97;4.90;;;13.40;73.70;;;;;;5052729;28;20503;-64
2023/04/25 03:11:10;;;;;;;5.10;3.93;;;13.40;73.80;;;;;;5051479;28;20444;-64
2023/04/25 03:13:37;;;;;;;5.10;4.60;;;13.40;73.80;;;;;;5047374;28;20870;-64
2023/04/25 03:16:04;;;;;;;5.00;4.60;;;13.40;73.90;;;;;;5039949;28;20448;-64
2023/04/25 03:18:31;;;;;;;4.80;4.30;;;13.40;73.80;;;;;;5034086;28;20969;-64
2023/04/25 03:20:58;;;;;;;5.17;4.67;;;13.40;73.90;;;;;;4995133;28;1097459;-64
2023/04/25 03:23:26;;;;;;;4.73;4.00;;;13.40;74.00;;;;;;5033037;28;20230;-65
2023/04/25 03:25:53;;;;;;;5.00;4.50;;;13.40;73.80;;;;;;5033108;28;20813;-64
2023/04/25 03:28:19;;;;;;;4.80;4.30;;;13.30;73.90;;;;;;5033756;28;20457;-64
2023/04/25 03:30:46;;;;;;;4.40;4.00;;;13.30;74.10;;;;;;5033378;28;20547;-64
2023/04/25 03:33:13;;;;;;;5.17;4.17;;;13.30;74.80;;;;;;5033230;28;20449;-64
2023/04/25 03:35:40;;;;;;;5.57;4.17;;;13.40;74.10;;;;;;5032627;28;20464;-64
2023/04/25 03:38:07;;;;;;;5.07;4.50;;;13.40;74.20;;;;;;5033158;28;20543;-64
2023/04/25 03:40:35;;;;;;;4.73;4.33;;;13.50;74.60;;;;;;5033278;28;21028;-64
2023/04/25 03:43:02;;;;;;;4.60;4.20;;;13.50;74.50;;;;;;5033167;28;20489;-64
2023/04/25 03:45:29;;;;;;;4.77;4.37;;;13.50;74.40;;;;;;5033432;28;21016;-64
2023/04/25 03:47:56;;;;;;;4.63;4.17;;;13.50;74.40;;;;;;5041065;28;20472;-64
2023/04/25 03:50:23;;;;;;;4.77;4.37;;;13.50;74.20;;;;;;5052841;28;20454;-64
2023/04/25 03:52:50;;;;;;;5.00;4.60;;;13.50;74.40;;;;;;5052183;28;20570;-64
2023/04/25 03:55:17;;;;;;;4.40;4.00;;;13.50;74.40;;;;;;5033154;28;20480;-64
2023/04/25 03:57:45;;;;;;;5.40;4.90;;;13.50;74.20;;;;;;5046290;28;20455;-64
2023/04/25 04:00:13;;;;;;;5.33;4.83;;;13.50;73.90;;;;;;5043143;28;20452;-64
2023/04/25 04:02:40;;;;;;;5.77;4.77;;;13.50;74.20;;;;;;5052433;28;20472;-64
2023/04/25 04:05:07;;;;;;;5.47;4.70;;;13.40;73.50;;;;;;5050498;28;20484;-64
2023/04/25 04:07:39;;;;;;;5.60;4.80;;;13.40;73.50;;;;;;5048532;28;20995;-64
2023/04/25 04:10:07;;;;;;;5.10;4.53;;;13.40;73.80;;;;;;5042566;28;20461;-64
2023/04/25 04:12:34;;;;;;;4.93;4.40;;;13.30;73.90;;;;;;5032967;28;20480;-64
2023/04/25 04:15:03;;;;;;;4.97;4.50;;;13.30;74.30;;;;;;5033602;28;20481;-64
2023/04/25 04:17:30;;;;;;;5.13;4.30;;;13.30;74.40;;;;;;5048041;28;20932;-64
2023/04/25 04:19:57;;;;;;;5.03;4.57;;;13.30;74.40;;;;;;5046887;28;20820;-64
2023/04/25 04:22:24;;;;;;;8.57;4.47;;;13.30;74.40;;;;;;5051919;28;20470;-64
2023/04/25 04:24:51;;;;;;;4.67;4.27;;;13.30;74.20;;;;;;5033969;28;20543;-64
2023/04/25 04:27:19;;;;;;;4.50;4.10;;;13.30;74.40;;;;;;5040514;28;20463;-64
2023/04/25 04:29:46;;;;;;;5.00;4.50;;;13.40;74.60;;;;;;5036315;28;20811;-64
2023/04/25 04:32:15;;;;;;;5.07;4.23;;;13.30;74.60;;;;;;5035429;28;20445;-64
2023/04/25 04:34:42;;;;;;;4.93;4.43;;;13.30;74.60;;;;;;5039196;28;20563;-64
2023/04/25 04:37:09;;;;;;;6.03;4.50;;;13.40;74.10;;;;;;5039569;28;20460;-64
2023/04/25 04:39:36;;;;;;;4.83;4.33;;;13.40;74.10;;;;;;5032365;28;20511;-64
2023/04/25 04:42:04;;;;;;;4.90;4.50;;;13.40;74.00;;;;;;5032449;28;20445;-64
2023/04/25 04:44:34;;;;;;;4.90;3.83;;;13.40;74.10;;;;;;5036251;28;20483;-64
2023/04/25 04:47:01;;;;;;;4.93;4.53;;;13.40;74.00;;;;;;5031773;28;20488;-64
2023/04/25 04:49:29;;;;;;;4.77;4.23;;;13.40;74.00;;;;;;5036833;28;20469;-64
2023/04/25 04:51:56;;;;;;;4.97;4.37;;;13.50;74.10;;;;;;5032450;28;20452;-64
2023/04/25 04:54:23;;;;;;;4.13;3.83;;;13.40;73.90;;;;;;5032319;28;20444;-64
2023/04/25 04:56:51;;;;;;;4.47;4.03;;;13.50;74.50;;;;;;5040343;28;20459;-64
2023/04/25 04:59:17;;;;;;;4.73;4.33;;;13.50;75.50;;;;;;5039679;28;20469;-64
2023/04/25 05:01:45;;;;;;;3.80;3.50;;;13.60;74.80;;;;;;5046240;28;20844;-65
2023/04/25 05:04:12;;;;;;;4.53;4.10;;;13.60;75.20;;;;;;5046203;28;20491;-64
2023/04/25 05:06:40;;;;;;;5.00;4.20;;;13.60;75.50;;;;;;5049166;28;20526;-64
2023/04/25 05:09:07;;;;;;;4.63;4.23;;;13.70;75.30;;;;;;5049751;28;20449;-64
2023/04/25 05:11:34;;;;;;;7.03;5.70;;;13.70;75.40;;;;;;5042270;28;20449;-64
2023/04/25 05:14:01;;;;;;;4.60;4.20;;;13.70;75.30;;;;;;5032110;28;20796;-64
2023/04/25 05:16:28;;;;;;;5.10;4.60;;;13.70;75.40;;;;;;5033806;28;20446;-64
2023/04/25 05:18:55;;;;;;;4.93;4.43;;;13.70;75.40;;;;;;5038699;28;20445;-64
2023/04/25 05:21:22;;;;;;;4.90;4.37;;;13.70;76.30;;;;;;5035571;28;20888;-64
2023/04/25 05:23:50;;;;;;;4.50;4.10;;;13.70;75.30;;;;;;5046511;28;20535;-64
2023/04/25 05:26:17;;;;;;;6.93;4.73;;;13.80;75.50;;;;;;5042589;28;20816;-64
2023/04/25 05:28:44;;;;;;;5.13;4.20;;;13.80;75.40;;;;;;5050632;28;20444;-64
2023/04/25 05:31:11;;;;;;;4.63;4.23;;;13.80;75.10;;;;;;5035360;28;20460;-64
2023/04/25 05:33:38;;;;;;;4.70;4.30;;;13.80;75.60;;;;;;5031566;28;20465;-64
2023/04/25 05:36:06;;;;;;;4.83;4.43;;;13.90;75.10;;;;;;5030493;28;20453;-64
2023/04/25 05:38:33;;;;;;;5.40;4.37;;;13.90;75.20;;;;;;5050400;28;20951;-65
2023/04/25 05:41:01;;;;;;;4.53;3.97;;;14.00;75.10;;;;;;5047827;28;20459;-65
2023/04/25 05:43:28;;;;;;;4.43;4.03;;;14.00;74.60;;;;;;5051740;28;20448;-64
2023/04/25 05:45:55;;;;;;;4.60;4.20;;;14.10;74.20;;;;;;5039568;28;20523;-65
2023/04/25 05:48:22;;;;;;;4.37;3.97;;;14.10;74.20;;;;;;5031250;28;20808;-65
2023/04/25 05:50:48;;;;;;;4.20;3.80;;;14.20;73.20;;;;;;5049299;28;20532;-65
2023/04/25 05:53:15;;;;;;;4.33;3.93;;;14.20;72.00;;;;;;5051466;28;20476;-64
2023/04/25 05:55:42;;;;;;;4.20;3.80;;;14.10;72.90;;;;;;5044216;28;20524;-64
2023/04/25 05:58:10;;;;;;;4.40;4.00;;;14.10;72.10;;;;;;5031137;28;20477;-65
2023/04/25 06:00:38;;;;;;;4.50;4.10;;;14.10;72.30;;;;;;5048817;28;21052;-64
2023/04/25 06:03:04;;;;;;;4.87;4.37;;;14.10;72.90;;;;;;5035832;28;20453;-64
2023/04/25 06:05:31;;;;;;;4.90;4.40;;;14.10;73.00;;;;;;5041132;28;21040;-65
2023/04/25 06:07:58;;;;;;;4.87;4.37;;;14.00;72.50;;;;;;5039906;28;20453;-65
2023/04/25 06:10:25;;;;;;;4.93;4.27;;;14.00;73.30;;;;;;5042224;28;20458;-64
2023/04/25 06:12:52;;;;;;;4.63;4.23;;;14.00;73.60;;;;;;5048527;28;20448;-64
2023/04/25 06:15:20;;;;;;;4.30;3.90;;;14.00;74.00;;;;;;5050272;28;20527;-65
2023/04/25 06:17:48;;;;;;;5.10;4.60;;;14.00;73.60;;;;;;5050786;28;20476;-65
2023/04/25 06:20:15;;;;;;;4.47;4.07;;;14.00;73.40;;;;;;5045379;28;20463;-65
2023/04/25 06:22:42;;;;;;;4.90;4.40;;;14.00;73.00;;;;;;5040659;28;20479;-65
2023/04/25 06:25:09;;;;;;;4.27;3.87;;;14.00;73.50;;;;;;5051844;28;20483;-64
2023/04/25 06:27:36;;;;;;;5.40;4.37;;;13.90;72.10;;;;;;5052678;28;20451;-65
2023/04/25 06:30:04;;;;;;;4.07;3.70;;;13.80;72.30;;;;;;5045685;28;20449;-65
2023/04/25 06:32:34;;;;;;;5.00;4.60;;;13.70;72.00;;;;;;5032996;28;20535;-64
2023/04/25 06:35:00;;;;;;;4.93;4.47;;;13.60;72.90;;;;;;5033179;28;20446;-64
2023/04/25 06:37:27;;;;;;;5.03;4.53;;;13.50;73.50;;;;;;5032927;28;20445;-64
2023/04/25 06:39:54;;;;;;;4.53;4.13;;;13.30;74.10;;;;;;5032976;28;20451;-64
2023/04/25 06:42:21;;;;;;;5.57;4.23;;;13.30;74.70;;;;;;5032620;28;20507;-65
2023/04/25 06:44:48;;;;;;;5.93;4.90;;;13.40;74.60;;;;;;5032712;28;20477;-65
2023/04/25 06:47:15;;;;;;;4.60;4.10;;;13.40;74.50;;;;;;5032322;28;21121;-64
2023/04/25 06:49:43;;;;;;;5.20;4.57;;;13.30;74.70;;;;;;5032493;28;20926;-65
2023/04/25 06:52:10;;;;;;;5.17;4.67;;;13.40;75.20;;;;;;5032784;28;20449;-65
2023/04/25 06:54:37;;;;;;;4.77;4.37;;;13.40;75.20;;;;;;5032686;28;20495;-64
2023/04/25 06:57:04;;;;;;;5.17;4.67;;;13.40;75.30;;;;;;5032536;28;20471;-64
2023/04/25 06:59:31;;;;;;;5.30;4.80;;;13.50;76.00;;;;;;5038754;28;20503;-64
2023/04/25 07:01:57;;;;;;;5.60;4.50;;;13.60;75.40;;;;;;5052332;28;20484;-65
2023/04/25 07:04:24;;;;;;;5.17;4.67;;;13.60;74.90;;;;;;5052331;28;21033;-64
2023/04/25 07:06:53;;;;;;;5.40;4.77;;;13.60;75.40;;;;;;5052385;28;20441;-64
2023/04/25 07:09:20;;;;;;;5.67;5.17;;;13.60;75.40;;;;;;5052064;28;20956;-64
2023/04/25 07:11:47;;;;;;;6.00;5.40;;;13.60;75.70;;;;;;5052234;28;20850;-64
2023/04/25 07:14:13;;;;;;;7.00;5.60;;;13.60;75.80;;;;;;5045056;28;20478;-64
2023/04/25 07:16:40;;;;;;;5.97;5.00;;;13.70;75.30;;;;;;5032224;28;20448;-64
2023/04/25 07:19:07;;;;;;;6.17;5.20;;;13.70;75.30;;;;;;5032063;28;20454;-64
2023/04/25 07:21:36;;;;;;;6.00;5.40;;;13.80;75.70;;;;;;5032284;28;20453;-65
2023/04/25 07:24:04;;;;;;;6.27;5.20;;;13.70;75.30;;;;;;5032135;28;20460;-64
2023/04/25 07:26:31;;;;;;;6.67;5.83;;;13.70;75.80;;;;;;5032076;28;20445;-65
2023/04/25 07:28:58;;;;;;;5.93;5.33;;;13.50;76.10;;;;;;5044522;28;20476;-64
2023/04/25 07:31:25;;;;;;;5.33;4.83;;;13.60;76.90;;;;;;5051711;28;20444;-65
2023/04/25 07:33:52;;;;;;;6.20;5.60;;;13.70;77.10;;;;;;5051074;28;20456;-65
2023/04/25 07:36:19;;;;;;;6.87;5.70;;;13.70;76.50;;;;;;5051939;28;20443;-64
2023/04/25 07:38:46;;;;;;;6.30;5.70;;;13.60;76.90;;;;;;5051595;28;20544;-64
2023/04/25 07:41:14;;;;;;;6.33;5.13;;;13.60;76.30;;;;;;5051584;28;20450;-65
2023/04/25 07:43:41;;;;;;;6.30;5.67;;;13.70;76.40;;;;;;5038944;28;20538;-65
2023/04/25 07:46:08;;;;;;;5.90;5.30;;;13.70;76.30;;;;;;5031795;28;20489;-65
2023/04/25 07:48:35;;;;;;;6.43;5.83;;;13.80;76.50;;;;;;5031677;28;20531;-64
2023/04/25 07:51:02;;;;;;;6.83;6.17;;;13.90;76.00;;;;;;5031529;28;20483;-65
2023/04/25 07:53:29;;;;;;;6.63;5.50;;;13.90;75.70;;;;;;5041273;28;20853;-64
2023/04/25 07:55:56;;;;;;;6.47;5.87;;;13.70;75.10;;;;;;5051365;28;20448;-64
2023/04/25 07:58:24;;;;;;;6.43;5.83;;;13.60;76.30;;;;;;5047304;28;20476;-64
2023/04/25 08:00:51;;;;;;;7.17;6.03;;;13.60;76.50;;;;;;5051196;28;20506;-64
2023/04/25 08:03:18;;;;;;;5.93;5.37;;;13.60;76.70;;;;;;5043728;28;20467;-64
2023/04/25 08:05:45;;;;;;;6.70;5.87;;;13.50;76.70;;;;;;5031169;28;20579;-64
2023/04/25 08:08:12;;;;;;;6.17;5.63;;;13.50;77.10;;;;;;5048241;28;20532;-64
2023/04/25 08:10:39;;;;;;;7.10;6.17;;;13.50;76.80;;;;;;5050754;28;20450;-64
2023/04/25 08:13:06;;;;;;;6.10;5.27;;;13.50;76.10;;;;;;5044595;28;20459;-64
2023/04/25 08:15:34;;;;;;;6.83;5.50;;;13.50;76.60;;;;;;5031019;28;20532;-64
2023/04/25 08:18:01;;;;;;;5.90;5.30;;;13.70;77.20;;;;;;5031337;28;20872;-64
2023/04/25 08:20:28;;;;;;;6.97;6.27;;;13.90;76.70;;;;;;5030648;28;20468;-64
2023/04/25 08:22:55;;;;;;;6.73;6.13;;;14.00;75.80;;;;;;5030640;28;20839;-65
2023/04/25 08:25:22;;;;;;;7.13;5.97;;;14.00;75.50;;;;;;5030730;28;20488;-65
2023/04/25 08:27:49;;;;;;;6.60;5.97;;;14.00;75.10;;;;;;5030813;28;20444;-65
2023/04/25 08:30:15;;;;;;;7.03;6.33;;;13.90;75.40;;;;;;5030812;28;20449;-65
2023/04/25 08:32:44;;;;;;;7.17;6.47;;;13.80;75.40;;;;;;5033009;28;20451;-64
2023/04/25 08:35:11;;;;;;;7.73;6.93;;;13.80;76.30;;;;;;5050928;28;20463;-64
2023/04/25 08:37:38;;;;;;;9.17;6.90;;;13.80;76.50;;;;;;5050474;28;20547;-65
2023/04/25 08:40:06;;;;;;;9.53;7.67;;;13.80;76.30;;;;;;5050498;28;20456;-64
2023/04/25 08:42:35;;;;;;;7.80;7.10;;;13.80;76.80;;;;;;5049713;28;20957;-64
2023/04/25 08:45:03;;;;;;;7.80;7.07;;;13.80;75.90;;;;;;5050463;28;20484;-65
2023/04/25 08:47:33;;;;;;;7.47;6.77;;;13.70;75.90;;;;;;5050614;28;20513;-64
2023/04/25 08:50:05;;;;;;;7.90;7.10;;;13.70;76.40;;;;;;5050269;28;20535;-65
2023/04/25 08:52:38;;;;;;;8.60;7.70;;;13.60;77.60;;;;;;5050028;28;20456;-64
2023/04/25 08:55:08;;;;;;;9.70;7.47;;;13.60;78.20;;;;;;5030459;28;20452;-64
2023/04/25 08:57:35;;;;;;;9.80;8.90;;;13.60;77.70;;;;;;5030335;28;20464;-64
2023/04/25 09:00:04;;;;;;;9.10;7.90;;;13.50;78.30;;;;;;5030330;28;20464;-64
2023/04/25 09:02:31;;;;;;;9.27;8.33;;;13.50;78.60;;;;;;5030306;28;20445;-64
2023/04/25 09:04:58;;;;;;;8.50;7.60;;;13.50;78.80;;;;;;5049692;28;20487;-64
2023/04/25 09:07:27;;;;;;;8.90;7.90;;;13.60;79.20;;;;;;5050316;28;20448;-65
2023/04/25 09:09:54;;;;;;;8.93;8.03;;;13.80;79.10;;;;;;5049981;28;20455;-65
2023/04/25 09:12:20;;;;;;;9.17;7.60;;;13.90;79.00;;;;;;5050418;28;20502;-65
2023/04/25 09:15:05;;;;;;;9.87;8.13;;;14.00;79.20;;;;;;5031798;28;20456;-65
2023/04/25 09:17:32;;;;;;;8.50;6.97;;;14.10;78.20;;;;;;5030246;28;21103;-65
2023/04/25 09:20:08;;;;;;;7.67;6.87;;;14.20;76.50;;;;;;5030045;28;20471;-64
2023/04/25 09:22:37;;;;;;;8.70;7.07;;;14.20;75.70;;;;;;5030306;28;20449;-65
2023/04/25 09:25:08;;;;;;;7.77;6.90;;;14.20;75.80;;;;;;5031089;28;20989;-65
2023/04/25 09:27:35;;;;;;;9.07;6.97;;;14.20;75.80;;;;;;5030233;28;20477;-65
2023/04/25 09:30:03;;;;;;;7.40;6.70;;;14.20;75.50;;;;;;5030344;28;20469;-65
2023/04/25 09:32:30;;;;;;;10.93;7.20;;;14.20;75.60;;;;;;5030210;28;20548;-65
2023/04/25 09:34:58;;;;;;;10.27;7.20;;;14.20;75.80;;;;;;5048623;28;20531;-64
2023/04/25 09:37:26;;;;;;;7.83;6.83;;;14.20;75.90;;;;;;5050013;28;20474;-65
2023/04/25 09:39:59;;;;;;;8.17;7.10;;;14.30;75.70;;;;;;5049746;28;20459;-65
2023/04/25 09:42:28;;;;;;;9.97;7.47;;;14.30;75.90;;;;;;5049772;28;20452;-65
2023/04/25 09:44:56;;;;;;;10.23;7.07;;;14.30;75.80;;;;;;5049502;28;20476;-64
2023/04/25 09:47:24;;;;;;;10.50;7.03;;;14.20;76.20;;;;;;5049931;28;20444;-64
2023/04/25 09:49:53;;;;;;;10.73;9.50;;;14.20;75.10;;;;;;5049952;28;20800;-64
2023/04/25 09:52:22;;;;;;;12.23;9.40;;;14.10;74.80;;;;;;5049331;28;20483;-64
2023/04/25 09:54:49;;;;;;;10.03;8.30;;;14.00;75.00;;;;;;5049530;28;20483;-64
2023/04/25 09:57:19;;;;;;;8.77;7.70;;;14.00;74.90;;;;;;5050915;28;20444;-64
2023/04/25 09:59:47;;;;;;;10.37;8.17;;;13.90;74.20;;;;;;5053670;28;20555;-65
2023/04/25 10:02:16;;;;;;;9.03;7.67;;;13.90;74.40;;;;;;5046671;28;20449;-64
2023/04/25 10:04:45;;;;;;;9.90;8.07;;;13.80;74.80;;;;;;5033224;28;21214;-64
2023/04/25 10:07:12;;;;;;;10.63;8.47;;;13.80;75.30;;;;;;5042260;28;20440;-64
2023/04/25 10:09:40;;;;;;;10.23;7.70;;;13.80;75.50;;;;;;5052994;28;20448;-65
2023/04/25 10:12:08;;;;;;;11.13;8.60;;;13.80;75.40;;;;;;5046939;28;20495;-64
2023/04/25 10:14:37;;;;;;;9.87;8.07;;;13.80;75.30;;;;;;5033409;28;20449;-64
2023/04/25 10:17:03;;;;;;;9.43;8.07;;;13.80;76.10;;;;;;5033630;28;20445;-64
2023/04/25 10:19:31;;;;;;;11.30;8.53;;;13.80;75.80;;;;;;5033086;28;20457;-64
2023/04/25 10:22:08;;;;;;;10.80;9.00;;;13.80;76.50;;;;;;5036900;28;20470;-64
2023/04/25 10:24:36;;;;;;;10.70;8.67;;;13.80;76.80;;;;;;5043762;28;20867;-64
2023/04/25 10:27:04;;;;;;;12.67;9.40;;;13.80;76.50;;;;;;5033155;28;20547;-65
2023/04/25 10:29:30;;;;;;;10.33;9.30;;;13.90;76.60;;;;;;5033339;28;20476;-65
2023/04/25 10:32:00;;;;;;;11.13;9.30;;;13.90;77.20;;;;;;5032869;28;20471;-65
2023/04/25 10:34:40;;;;;;;10.67;9.50;;;13.90;76.50;;;;;;5032922;28;20449;-65
2023/04/25 10:37:10;;;;;;;10.50;8.50;;;14.00;76.80;;;;;;5032827;28;20845;-65
2023/04/25 10:39:38;;;;;;;11.23;9.83;;;14.10;77.00;;;;;;5032916;28;20445;-65
2023/04/25 10:42:05;;;;;;;11.80;8.83;;;14.20;77.60;;;;;;5032652;28;20460;-65
2023/04/25 10:44:33;;;;;;;12.77;9.67;;;14.20;76.90;;;;;;5033022;28;20459;-65
2023/04/25 10:47:02;;;;;;;14.73;9.67;;;14.10;76.80;;;;;;5032484;28;20480;-65
2023/04/25 10:49:32;;;;;;;12.87;9.20;;;14.20;77.00;;;;;;5032480;28;20478;-65
2023/04/25 10:52:17;;;;;;;11.23;8.90;;;14.20;76.10;;;;;;5032329;28;20460;-64
2023/04/25 10:54:48;;;;;;;11.20;8.87;;;14.10;76.30;;;;;;5032410;28;20453;-65
2023/04/25 10:57:38;;;;;;;15.30;9.40;;;14.00;76.70;;;;;;5032462;28;21179;-65
2023/04/25 11:00:14;;;;;;;12.60;9.40;;;13.80;77.60;;;;;;5032967;28;21116;-65
2023/04/25 11:02:47;;;;;;;14.53;9.70;;;13.80;77.40;;;;;;5041579;28;20879;-65
2023/04/25 11:05:28;;;;;;;11.90;9.70;;;13.70;78.20;;;;;;5032599;28;20522;-65
2023/04/25 11:07:57;;;;;;;14.60;9.53;;;13.60;78.80;;;;;;5030345;28;20476;-65
2023/04/25 11:10:27;;;;;;;19.63;9.43;;;13.50;79.00;;;;;;5052906;28;20494;-65
2023/04/25 11:12:54;;;;;;;12.83;10.20;;;13.60;79.30;;;;;;5039744;28;20453;-64
2023/04/25 11:15:21;;;;;;;14.97;9.40;;;13.70;79.60;;;;;;5032468;28;20445;-64
2023/04/25 11:17:50;;;;;;;12.80;8.93;;;13.80;78.90;;;;;;5032019;28;20536;-65
2023/04/25 11:20:17;;;;;;;13.57;8.90;;;14.00;79.20;;;;;;5043238;28;20547;-65
2023/04/25 11:22:45;;;;;;;12.27;8.20;;;14.10;79.00;;;;;;5051915;28;20499;-65
2023/04/25 11:25:14;;;;;;;13.53;8.67;;;14.10;77.50;;;;;;5052308;28;20448;-65
2023/04/25 11:27:51;;;;;;;12.43;8.90;;;13.90;77.50;;;;;;5051913;28;20464;-65
2023/04/25 11:30:19;;;;;;;11.43;8.07;;;13.70;77.80;;;;;;5041571;28;20460;-65
2023/04/25 11:32:46;;;;;;;18.50;9.07;;;13.70;77.80;;;;;;5031613;28;20453;-65
2023/04/25 11:35:15;;;;;;;12.77;7.47;;;13.60;77.90;;;;;;5031947;28;20449;-65
2023/04/25 11:37:42;;;;;;;12.77;7.50;;;13.70;78.50;;;;;;5031935;28;20453;-64
2023/04/25 11:40:11;;;;;;;9.80;7.03;;;13.80;77.50;;;;;;5032029;28;20500;-64
2023/04/25 11:42:39;;;;;;;11.27;7.40;;;13.80;78.10;;;;;;5031750;28;20639;-65
2023/04/25 11:45:07;;;;;;;9.30;7.47;;;13.90;78.20;;;;;;5031720;28;20453;-65
2023/04/25 11:47:35;;;;;;;9.77;7.03;;;13.90;76.60;;;;;;5031474;28;20457;-65
2023/04/25 11:50:02;;;;;;;12.20;7.03;;;13.90;76.60;;;;;;5039285;28;20460;-65
2023/04/25 11:52:50;;;;;;;10.90;7.00;;;13.90;77.00;;;;;;5051412;28;20815;-65
2023/04/25 11:55:18;;;;;;;11.77;6.93;;;13.70;78.40;;;;;;5051688;28;20452;-65
2023/04/25 11:57:48;;;;;;;8.37;7.27;;;13.70;78.20;;;;;;5050951;28;20468;-65
2023/04/25 12:00:17;;;;;;;9.17;7.93;;;13.80;78.00;;;;;;5051353;28;20992;-65
2023/04/25 12:02:44;;;;;;;9.63;7.53;;;14.00;78.10;;;;;;5051254;28;20451;-65
2023/04/25 12:05:12;;;;;;;12.97;7.43;;;14.00;75.00;;;;;;5051061;28;20851;-65
2023/04/25 12:07:41;;;;;;;11.97;7.93;;;13.80;76.00;;;;;;5051143;28;20844;-65
2023/04/25 12:10:11;;;;;;;10.00;7.00;;;13.80;76.50;;;;;;5043257;28;20481;-65
2023/04/25 12:12:39;;;;;;;9.23;7.67;;;13.70;76.10;;;;;;5031443;28;20457;-65
2023/04/25 12:15:15;;;;;;;8.83;7.07;;;13.70;77.10;;;;;;5030908;28;20459;-65
2023/04/25 12:17:43;;;;;;;8.50;7.50;;;13.50;76.80;;;;;;5031229;28;20449;-65
2023/04/25 12:20:13;;;;;;;12.60;7.23;;;13.40;76.60;;;;;;5038446;28;20484;-65
2023/04/25 12:22:44;;;;;;;9.83;8.17;;;13.40;77.60;;;;;;5050951;28;20821;-65
2023/04/25 12:25:13;;;;;;;9.33;7.53;;;13.40;77.80;;;;;;5050800;28;20480;-65
2023/04/25 12:27:41;;;;;;;8.83;7.20;;;13.40;76.70;;;;;;5051088;28;20483;-65
2023/04/25 12:30:10;;;;;;;10.63;7.47;;;13.50;76.80;;;;;;5050523;28;20530;-65
2023/04/25 12:32:37;;;;;;;10.10;6.23;;;13.50;77.10;;;;;;5050538;28;20502;-65
2023/04/25 12:35:04;;;;;;;8.77;7.10;;;13.70;76.40;;;;;;5050521;28;20459;-65
2023/04/25 12:37:31;;;;;;;8.50;6.17;;;13.90;76.00;;;;;;5050577;28;20455;-65
2023/04/25 12:39:58;;;;;;;10.97;6.57;;;14.10;75.00;;;;;;5050265;28;20932;-65
2023/04/25 12:42:26;;;;;;;9.33;5.87;;;14.40;76.00;;;;;;5040773;28;20996;-64
2023/04/25 12:44:53;;;;;;;8.77;5.60;;;14.50;74.60;;;;;;5030249;28;20468;-65
2023/04/25 12:47:20;;;;;;;8.23;5.73;;;14.60;74.60;;;;;;5030382;28;20585;-64
2023/04/25 12:49:48;;;;;;;5.70;4.70;;;14.80;72.40;;;;;;5034529;28;20452;-64